createdAt,value
2023-04-25T00:00:35.297Z,22.55
2023-04-25T00:01:35.317Z,22.55
2023-04-25T00:02:35.453Z,22.55
2023-04-25T00:03:35.621Z,22.55
2023-04-25T00:04:35.762Z,22.55
2023-04-25T00:05:35.509Z,22.54
2023-04-25T00:06:35.507Z,22.55
2023-04-25T00:07:35.518Z,22.55
2023-04-25T00:08:35.567Z,22.55
2023-04-25T00:09:35.754Z,22.54
2023-04-25T00:10:35.644Z,22.55
2023-04-25T00:11:35.649Z,22.55
2023-04-25T00:12:35.670Z,22.55
2023-04-25T00:13:35.692Z,22.55
2023-04-25T00:14:35.701Z,22.55
2023-04-25T00:15:35.738Z,22.54
2023-04-25T00:16:35.912Z,22.54
2023-04-25T00:17:35.933Z,22.55
2023-04-25T00:18:35.833Z,22.55
2023-04-25T00:19:35.940Z,22.56
2023-04-25T00:20:35.982Z,22.55
2023-04-25T00:21:35.982Z,22.55
2023-04-25T00:22:36.041Z,22.55
2023-04-25T00:23:36.086Z,22.55
2023-04-25T00:24:36.102Z,22.53
2023-04-25T00:25:36.211Z,22.54
2023-04-25T00:26:36.206Z,22.54
2023-04-25T00:27:36.246Z,22.54
2023-04-25T00:28:36.338Z,22.55
2023-04-25T00:29:36.392Z,22.55
2023-04-25T00:30:36.451Z,22.55
2023-04-25T00:31:36.509Z,22.54
2023-04-25T00:32:36.474Z,22.55
2023-04-25T00:33:36.529Z,22.55
2023-04-25T00:34:36.578Z,22.54
2023-04-25T00:35:36.676Z,22.54
2023-04-25T00:36:36.692Z,22.54
2023-04-25T00:37:36.744Z,22.55
2023-04-25T00:38:36.771Z,22.54
2023-04-25T00:39:36.804Z,22.55
2023-04-25T00:40:36.871Z,22.55
2023-04-25T00:41:36.936Z,22.55
2023-04-25T00:42:36.989Z,22.54
2023-04-25T00:43:37.032Z,22.54
2023-04-25T00:44:37.034Z,22.54
2023-04-25T00:45:37.127Z,22.55
2023-04-25T00:46:37.237Z,22.53
2023-04-25T00:47:37.180Z,22.53
2023-04-25T00:48:37.228Z,22.53
2023-04-25T00:49:37.292Z,22.54
2023-04-25T00:50:37.407Z,22.53
2023-04-25T00:51:37.334Z,22.54
2023-04-25T00:52:37.441Z,22.53
2023-04-25T00:53:37.451Z,22.53
2023-04-25T00:54:37.485Z,22.53
2023-04-25T00:55:37.990Z,22.54
2023-04-25T00:56:37.637Z,22.53
2023-04-25T00:57:37.665Z,22.53
2023-04-25T00:58:37.649Z,22.54
2023-04-25T00:59:37.690Z,22.53
2023-04-25T01:00:37.761Z,22.53
2023-04-25T01:01:37.692Z,22.53
2023-04-25T01:02:37.822Z,22.53
2023-04-25T01:03:37.819Z,22.53
2023-04-25T01:04:37.812Z,22.53
2023-04-25T01:05:37.842Z,22.54
2023-04-25T01:06:37.843Z,22.53
2023-04-25T01:07:37.856Z,22.54
2023-04-25T01:08:37.919Z,22.53
2023-04-25T01:09:37.946Z,22.52
2023-04-25T01:10:37.957Z,22.53
2023-04-25T01:11:37.950Z,22.53
2023-04-25T01:12:37.953Z,22.53
2023-04-25T01:13:37.976Z,22.54
2023-04-25T01:14:37.988Z,22.53
2023-04-25T01:15:38.078Z,22.53
2023-04-25T01:16:38.109Z,22.54
2023-04-25T01:17:38.103Z,22.53
2023-04-25T01:18:38.104Z,22.53
2023-04-25T01:19:38.140Z,22.54
2023-04-25T01:20:38.166Z,22.53
2023-04-25T01:21:38.210Z,22.53
2023-04-25T01:22:38.238Z,22.52
2023-04-25T01:23:38.271Z,22.51
2023-04-25T01:24:38.271Z,22.52
2023-04-25T01:25:38.294Z,22.52
2023-04-25T01:26:38.365Z,22.52
2023-04-25T01:27:38.375Z,22.52
2023-04-25T01:28:38.417Z,22.54
2023-04-25T01:29:38.451Z,22.52
2023-04-25T01:30:38.432Z,22.52
2023-04-25T01:31:38.565Z,22.53
2023-04-25T01:32:38.467Z,22.52
2023-04-25T01:33:38.429Z,22.53
2023-04-25T01:34:38.945Z,22.53
2023-04-25T01:35:38.537Z,22.53
2023-04-25T01:36:38.537Z,22.53
2023-04-25T01:37:38.558Z,22.52
2023-04-25T01:38:38.554Z,22.52
2023-04-25T01:39:38.936Z,22.52
2023-04-25T01:40:38.631Z,22.52
2023-04-25T01:41:38.642Z,22.52
2023-04-25T01:42:38.681Z,22.52
2023-04-25T01:43:38.711Z,22.53
2023-04-25T01:44:38.753Z,22.52
2023-04-25T01:45:38.808Z,22.52
2023-04-25T01:46:38.895Z,22.52
2023-04-25T01:47:38.839Z,22.52
2023-04-25T01:48:38.856Z,22.52
2023-04-25T01:49:38.900Z,22.52
2023-04-25T01:50:38.931Z,22.52
2023-04-25T01:51:38.969Z,22.52
2023-04-25T01:52:39.021Z,22.53
2023-04-25T01:53:39.072Z,22.52
2023-04-25T01:54:39.071Z,22.51
2023-04-25T01:55:39.146Z,22.52
2023-04-25T01:56:39.173Z,22.51
2023-04-25T01:57:39.201Z,22.52
2023-04-25T01:58:39.210Z,22.52
2023-04-25T01:59:39.231Z,22.51
2023-04-25T02:00:39.272Z,22.52
2023-04-25T02:01:39.449Z,22.52
2023-04-25T02:02:39.660Z,22.52
2023-04-25T02:03:39.634Z,22.51
2023-04-25T02:04:39.610Z,22.51
2023-04-25T02:05:39.509Z,22.51
2023-04-25T02:06:39.568Z,22.51
2023-04-25T02:07:39.583Z,22.51
2023-04-25T02:08:39.646Z,22.50
2023-04-25T02:09:39.670Z,22.52
2023-04-25T02:10:39.762Z,22.52
2023-04-25T02:11:39.790Z,22.51
2023-04-25T02:12:39.881Z,22.52
2023-04-25T02:13:39.897Z,22.50
2023-04-25T02:14:39.939Z,22.50
2023-04-25T02:15:40.104Z,22.50
2023-04-25T02:16:40.154Z,22.50
2023-04-25T02:17:40.129Z,22.52
2023-04-25T02:18:40.105Z,22.51
2023-04-25T02:19:40.118Z,22.51
2023-04-25T02:20:40.185Z,22.52
2023-04-25T02:21:40.252Z,22.51
2023-04-25T02:22:40.307Z,22.51
2023-04-25T02:23:40.376Z,22.51
2023-04-25T02:24:40.439Z,22.51
2023-04-25T02:25:40.456Z,22.51
2023-04-25T02:26:40.470Z,22.52
2023-04-25T02:27:40.552Z,22.51
2023-04-25T02:28:40.605Z,22.51
2023-04-25T02:29:40.614Z,22.51
2023-04-25T02:30:40.680Z,22.51
2023-04-25T02:31:40.753Z,22.51
2023-04-25T02:32:40.794Z,22.51
2023-04-25T02:33:40.840Z,22.51
2023-04-25T02:34:40.847Z,22.51
2023-04-25T02:35:40.856Z,22.51
2023-04-25T02:36:40.955Z,22.51
2023-04-25T02:37:40.978Z,22.51
2023-04-25T02:38:41.029Z,22.51
2023-04-25T02:39:41.062Z,22.51
2023-04-25T02:40:41.125Z,22.51
2023-04-25T02:41:41.193Z,22.51
2023-04-25T02:42:41.215Z,22.50
2023-04-25T02:43:41.251Z,22.51
2023-04-25T02:44:41.298Z,22.52
2023-04-25T02:45:41.348Z,22.52
2023-04-25T02:46:41.412Z,22.52
2023-04-25T02:47:41.453Z,22.51
2023-04-25T02:48:41.475Z,22.51
2023-04-25T02:49:41.520Z,22.51
2023-04-25T02:50:41.569Z,22.51
2023-04-25T02:51:41.600Z,22.50
2023-04-25T02:52:41.666Z,22.50
2023-04-25T02:53:41.722Z,22.50
2023-04-25T02:54:41.749Z,22.51
2023-04-25T02:55:41.794Z,22.51
2023-04-25T02:56:41.824Z,22.51
2023-04-25T02:57:41.879Z,22.51
2023-04-25T02:58:41.892Z,22.50
2023-04-25T02:59:41.947Z,22.51
2023-04-25T03:00:42.012Z,22.52
2023-04-25T03:01:42.070Z,22.51
2023-04-25T03:02:42.168Z,22.52
2023-04-25T03:03:42.147Z,22.50
2023-04-25T03:04:42.216Z,22.51
2023-04-25T03:05:42.153Z,22.52
2023-04-25T03:06:42.261Z,22.51
2023-04-25T03:07:42.188Z,22.51
2023-04-25T03:08:42.261Z,22.51
2023-04-25T03:09:42.221Z,22.51
2023-04-25T03:10:42.313Z,22.51
2023-04-25T03:11:42.307Z,22.51
2023-04-25T03:12:42.339Z,22.51
2023-04-25T03:13:42.414Z,22.51
2023-04-25T03:14:42.428Z,22.51
2023-04-25T03:15:42.476Z,22.50
2023-04-25T03:16:42.546Z,22.51
2023-04-25T03:17:42.648Z,22.50
2023-04-25T03:18:42.587Z,22.50
2023-04-25T03:19:42.640Z,22.50
2023-04-25T03:20:42.711Z,22.50
2023-04-25T03:21:43.008Z,22.50
2023-04-25T03:22:42.733Z,22.51
2023-04-25T03:23:42.792Z,22.51
2023-04-25T03:24:42.816Z,22.50
2023-04-25T03:25:42.827Z,22.50
2023-04-25T03:26:42.942Z,22.50
2023-04-25T03:27:42.985Z,22.50
2023-04-25T03:28:42.966Z,22.51
2023-04-25T03:29:42.994Z,22.51
2023-04-25T03:30:43.057Z,22.51
2023-04-25T03:31:43.133Z,22.51
2023-04-25T03:32:43.134Z,22.51
2023-04-25T03:33:43.132Z,22.51
2023-04-25T03:34:43.173Z,22.51
2023-04-25T03:35:43.229Z,22.51
2023-04-25T03:36:43.234Z,22.50
2023-04-25T03:37:43.244Z,22.51
2023-04-25T03:38:43.318Z,22.50
2023-04-25T03:39:43.429Z,22.50
2023-04-25T03:40:43.372Z,22.50
2023-04-25T03:41:43.437Z,22.50
2023-04-25T03:42:44.500Z,22.49
2023-04-25T03:43:43.435Z,22.49
2023-04-25T03:44:43.506Z,22.50
2023-04-25T03:45:43.554Z,22.50
2023-04-25T03:46:43.533Z,22.50
2023-04-25T03:47:43.593Z,22.49
2023-04-25T03:48:43.567Z,22.50
2023-04-25T03:49:43.629Z,22.50
2023-04-25T03:50:43.656Z,22.49
2023-04-25T03:51:43.737Z,22.50
2023-04-25T03:52:43.796Z,22.49
2023-04-25T03:53:43.809Z,22.49
2023-04-25T03:54:43.821Z,22.49
2023-04-25T03:55:43.854Z,22.50
2023-04-25T03:56:43.885Z,22.50
2023-04-25T03:57:43.931Z,22.50
2023-04-25T03:58:43.955Z,22.49
2023-04-25T03:59:43.960Z,22.49
2023-04-25T04:00:44.037Z,22.49
2023-04-25T04:01:44.046Z,22.50
2023-04-25T04:02:45.593Z,22.51
2023-04-25T04:03:44.267Z,22.49
2023-04-25T04:04:44.559Z,22.50
2023-04-25T04:05:44.212Z,22.50
2023-04-25T04:06:44.211Z,22.50
2023-04-25T04:07:44.317Z,22.50
2023-04-25T04:08:44.297Z,22.50
2023-04-25T04:09:44.320Z,22.51
2023-04-25T04:10:44.344Z,22.51
2023-04-25T04:11:44.391Z,22.50
2023-04-25T04:12:44.513Z,22.50
2023-04-25T04:13:44.425Z,22.50
2023-04-25T04:14:44.553Z,22.50
2023-04-25T04:15:44.593Z,22.50
2023-04-25T04:16:44.624Z,22.50
2023-04-25T04:17:44.612Z,22.51
2023-04-25T04:18:44.632Z,22.51
2023-04-25T04:19:44.661Z,22.50
2023-04-25T04:20:44.673Z,22.51
2023-04-25T04:21:44.741Z,22.51
2023-04-25T04:22:44.747Z,22.50
2023-04-25T04:23:44.765Z,22.50
2023-04-25T04:24:44.861Z,22.51
2023-04-25T04:25:44.929Z,22.51
2023-04-25T04:26:44.879Z,22.50
2023-04-25T04:27:44.891Z,22.51
2023-04-25T04:28:44.923Z,22.49
2023-04-25T04:29:44.964Z,22.49
2023-04-25T04:30:44.969Z,22.49
2023-04-25T04:31:45.007Z,22.50
2023-04-25T04:32:45.028Z,22.49
2023-04-25T04:33:45.050Z,22.49
2023-04-25T04:34:45.107Z,22.49
2023-04-25T04:35:45.147Z,22.49
2023-04-25T04:36:45.176Z,22.49
2023-04-25T04:37:45.211Z,22.50
2023-04-25T04:38:45.245Z,22.50
2023-04-25T04:39:45.312Z,22.51
2023-04-25T04:40:45.351Z,22.50
2023-04-25T04:41:45.383Z,22.50
2023-04-25T04:42:45.456Z,22.50
2023-04-25T04:43:45.459Z,22.50
2023-04-25T04:44:45.562Z,22.50
2023-04-25T04:45:45.664Z,22.49
2023-04-25T04:46:45.666Z,22.49
2023-04-25T04:47:45.642Z,22.49
2023-04-25T04:48:45.673Z,22.49
2023-04-25T04:49:45.720Z,22.50
2023-04-25T04:50:45.717Z,22.50
2023-04-25T04:51:45.851Z,22.50
2023-04-25T04:52:45.837Z,22.51
2023-04-25T04:53:45.841Z,22.50
2023-04-25T04:54:45.913Z,22.51
2023-04-25T04:55:45.920Z,22.52
2023-04-25T04:56:45.955Z,22.51
2023-04-25T04:57:45.995Z,22.51
2023-04-25T04:58:46.051Z,22.51
2023-04-25T04:59:46.070Z,22.52
2023-04-25T05:00:46.136Z,22.52
2023-04-25T05:01:46.166Z,22.52
2023-04-25T05:02:46.294Z,22.52
2023-04-25T05:03:46.376Z,22.53
2023-04-25T05:04:46.317Z,22.53
2023-04-25T05:05:46.336Z,22.53
2023-04-25T05:06:48.587Z,22.55
2023-04-25T05:07:46.366Z,22.55
2023-04-25T05:08:46.346Z,22.54
2023-04-25T05:09:46.513Z,22.55
2023-04-25T05:10:46.356Z,22.56
2023-04-25T05:11:46.373Z,22.55
2023-04-25T05:12:46.409Z,22.56
2023-04-25T05:13:46.325Z,22.55
2023-04-25T05:14:46.325Z,22.55
2023-04-25T05:15:46.335Z,22.56
2023-04-25T05:16:46.348Z,22.56
2023-04-25T05:17:46.561Z,22.55
2023-04-25T05:18:46.438Z,22.55
2023-04-25T05:19:46.293Z,22.56
2023-04-25T05:20:46.528Z,22.55
2023-04-25T05:21:46.284Z,22.55
2023-04-25T05:22:46.265Z,22.53
2023-04-25T05:23:46.323Z,22.53
2023-04-25T05:24:46.263Z,22.53
2023-04-25T05:25:46.384Z,22.54
2023-04-25T05:26:46.284Z,22.55
2023-04-25T05:27:46.231Z,22.55
2023-04-25T05:28:46.222Z,22.55
2023-04-25T05:29:46.218Z,22.55
2023-04-25T05:30:46.223Z,22.56
2023-04-25T05:31:46.303Z,22.56
2023-04-25T05:32:49.645Z,22.55
2023-04-25T05:33:46.193Z,22.54
2023-04-25T05:34:46.186Z,22.56
2023-04-25T05:35:46.529Z,22.59
2023-04-25T05:36:46.269Z,22.55
2023-04-25T05:37:46.551Z,22.51
2023-04-25T05:38:46.182Z,22.44
2023-04-25T05:39:47.012Z,22.37
2023-04-25T05:40:46.149Z,22.36
2023-04-25T05:41:46.222Z,22.36
2023-04-25T05:42:46.565Z,22.34
2023-04-25T05:43:46.121Z,22.33
2023-04-25T05:44:46.135Z,22.35
2023-04-25T05:45:46.159Z,22.31
2023-04-25T05:46:46.110Z,22.32
2023-04-25T05:47:46.602Z,22.30
2023-04-25T05:48:49.062Z,22.32
2023-04-25T05:49:46.119Z,22.32
2023-04-25T05:50:46.524Z,22.33
2023-04-25T05:51:46.068Z,22.35
2023-04-25T05:52:46.052Z,22.38
2023-04-25T05:53:46.032Z,22.40
2023-04-25T05:54:46.034Z,22.41
2023-04-25T05:55:46.019Z,22.43
2023-04-25T05:56:46.193Z,22.45
2023-04-25T05:57:46.198Z,22.46
2023-04-25T05:58:46.018Z,22.48
2023-04-25T05:59:46.009Z,22.49
2023-04-25T06:00:45.996Z,22.49
2023-04-25T06:01:46.009Z,22.51
2023-04-25T06:02:46.033Z,22.52
2023-04-25T06:03:46.066Z,22.53
2023-04-25T06:04:46.383Z,22.55
2023-04-25T06:05:46.028Z,22.55
2023-04-25T06:06:45.967Z,22.56
2023-04-25T06:07:46.060Z,22.56
2023-04-25T06:08:45.956Z,22.56
2023-04-25T06:09:45.953Z,22.58
2023-04-25T06:10:45.927Z,22.58
2023-04-25T06:11:45.915Z,22.58
2023-04-25T06:12:45.903Z,22.57
2023-04-25T06:13:45.943Z,22.57
2023-04-25T06:14:45.945Z,22.57
2023-04-25T06:15:45.928Z,22.57
2023-04-25T06:16:45.880Z,22.58
2023-04-25T06:17:45.922Z,22.58
2023-04-25T06:18:45.870Z,22.59
2023-04-25T06:19:45.860Z,22.60
2023-04-25T06:20:45.908Z,22.61
2023-04-25T06:21:45.844Z,22.61
2023-04-25T06:22:45.848Z,22.61
2023-04-25T06:23:45.852Z,22.63
2023-04-25T06:24:45.813Z,22.61
2023-04-25T06:25:45.815Z,22.64
2023-04-25T06:26:45.854Z,22.65
2023-04-25T06:27:45.820Z,22.66
2023-04-25T06:28:45.781Z,22.68
2023-04-25T06:29:45.822Z,22.68
2023-04-25T06:30:45.789Z,22.69
2023-04-25T06:31:45.931Z,22.71
2023-04-25T06:32:45.841Z,22.73
2023-04-25T06:33:45.760Z,22.72
2023-04-25T06:34:45.866Z,22.70
2023-04-25T06:35:45.773Z,22.68
2023-04-25T06:36:45.763Z,22.68
2023-04-25T06:37:46.067Z,22.67
2023-04-25T06:38:45.867Z,22.68
2023-04-25T06:39:45.936Z,22.67
2023-04-25T06:40:45.977Z,22.70
2023-04-25T06:41:46.026Z,22.69
2023-04-25T06:42:46.548Z,22.69
2023-04-25T06:43:46.092Z,22.69
2023-04-25T06:44:46.131Z,22.69
2023-04-25T06:45:48.399Z,22.72
2023-04-25T06:46:46.313Z,22.73
2023-04-25T06:47:46.392Z,22.74
2023-04-25T06:48:46.379Z,22.75
2023-04-25T06:49:46.431Z,22.76
2023-04-25T06:50:46.461Z,22.75
2023-04-25T06:51:46.583Z,22.75
2023-04-25T06:52:46.648Z,22.75
2023-04-25T06:53:46.652Z,22.74
2023-04-25T06:54:46.663Z,22.73
2023-04-25T06:55:47.058Z,22.72
2023-04-25T06:56:46.718Z,22.71
2023-04-25T06:57:47.567Z,22.70
2023-04-25T06:58:46.804Z,22.70
2023-04-25T06:59:46.876Z,22.71
2023-04-25T07:00:46.989Z,22.71
2023-04-25T07:01:46.951Z,22.71
2023-04-25T07:02:47.149Z,22.71
2023-04-25T07:03:47.192Z,22.70
2023-04-25T07:04:47.299Z,22.71
2023-04-25T07:05:47.105Z,22.71
2023-04-25T07:06:47.161Z,22.70
2023-04-25T07:07:47.235Z,22.71
2023-04-25T07:08:47.266Z,22.70
2023-04-25T07:09:47.332Z,22.70
2023-04-25T07:10:49.684Z,22.70
2023-04-25T07:11:47.414Z,22.71
2023-04-25T07:12:47.294Z,22.71
2023-04-25T07:13:47.291Z,22.71
2023-04-25T07:14:50.072Z,22.71
2023-04-25T07:15:47.584Z,22.71
2023-04-25T07:16:47.401Z,22.72
2023-04-25T07:17:47.598Z,22.74
2023-04-25T07:18:48.262Z,22.74
2023-04-25T07:19:47.245Z,22.74
2023-04-25T07:20:47.271Z,22.73
2023-04-25T07:21:47.248Z,22.76
2023-04-25T07:22:47.251Z,22.76
2023-04-25T07:23:47.229Z,22.77
2023-04-25T07:24:47.249Z,22.77
2023-04-25T07:25:47.587Z,22.76
2023-04-25T07:26:47.212Z,22.76
2023-04-25T07:27:47.316Z,22.75
2023-04-25T07:28:47.266Z,22.74
2023-04-25T07:29:47.163Z,22.75
2023-04-25T07:30:47.177Z,22.74
2023-04-25T07:31:47.202Z,22.75
2023-04-25T07:32:47.266Z,22.76
2023-04-25T07:33:47.617Z,22.79
2023-04-25T07:34:47.287Z,22.82
2023-04-25T07:35:47.621Z,22.90
2023-04-25T07:36:47.181Z,22.94
2023-04-25T07:37:47.145Z,22.99
2023-04-25T07:38:47.660Z,22.99
2023-04-25T07:39:47.222Z,22.98
2023-04-25T07:40:47.672Z,22.97
2023-04-25T07:41:47.310Z,22.96
2023-04-25T07:42:47.321Z,22.96
2023-04-25T07:43:47.339Z,22.95
2023-04-25T07:44:47.420Z,22.95
2023-04-25T07:45:47.538Z,22.93
2023-04-25T07:46:47.513Z,22.92
2023-04-25T07:47:48.252Z,22.93
2023-04-25T07:48:48.160Z,22.92
2023-04-25T07:49:47.657Z,22.91
2023-04-25T07:50:47.713Z,22.90
2023-04-25T07:51:47.777Z,22.89
2023-04-25T07:52:47.831Z,22.88
2023-04-25T07:53:50.512Z,22.87
2023-04-25T07:54:47.905Z,22.86
2023-04-25T07:55:47.889Z,22.86
2023-04-25T07:56:52.945Z,22.86
2023-04-25T07:57:48.889Z,22.84
2023-04-25T07:58:48.692Z,22.84
2023-04-25T07:59:47.848Z,22.86
2023-04-25T08:00:47.858Z,22.87
2023-04-25T08:01:47.824Z,22.85
2023-04-25T08:02:47.996Z,22.87
2023-04-25T08:03:48.084Z,22.92
2023-04-25T08:04:48.015Z,22.93
2023-04-25T08:05:48.314Z,22.92
2023-04-25T08:06:47.833Z,22.92
2023-04-25T08:07:47.939Z,22.94
2023-04-25T08:08:48.234Z,22.96
2023-04-25T08:09:47.947Z,22.96
2023-04-25T08:10:48.141Z,22.95
2023-04-25T08:11:48.592Z,22.95
2023-04-25T08:12:48.109Z,22.95
2023-04-25T08:13:50.122Z,22.94
2023-04-25T08:14:49.127Z,22.96
2023-04-25T08:15:48.650Z,22.94
2023-04-25T08:16:48.332Z,22.94
2023-04-25T08:17:49.103Z,22.94
2023-04-25T08:18:48.472Z,22.97
2023-04-25T08:19:48.470Z,22.97
2023-04-25T08:20:48.594Z,22.99
2023-04-25T08:21:48.560Z,23.00
2023-04-25T08:22:48.640Z,22.99
2023-04-25T08:23:48.689Z,22.98
2023-04-25T08:24:48.721Z,22.97
2023-04-25T08:25:48.795Z,22.99
2023-04-25T08:26:48.869Z,23.01
2023-04-25T08:27:48.923Z,23.02
2023-04-25T08:28:49.280Z,23.02
2023-04-25T08:29:49.030Z,23.02
2023-04-25T08:30:49.080Z,23.01
2023-04-25T08:31:49.303Z,23.00
2023-04-25T08:32:49.206Z,23.00
2023-04-25T08:33:50.115Z,22.98
2023-04-25T08:34:49.319Z,22.93
2023-04-25T08:35:49.333Z,22.91
2023-04-25T08:36:49.522Z,22.88
2023-04-25T08:37:49.446Z,22.86
2023-04-25T08:38:49.750Z,22.84
2023-04-25T08:39:49.581Z,22.85
2023-04-25T08:40:49.665Z,22.86
2023-04-25T08:41:49.671Z,22.86
2023-04-25T08:42:49.800Z,22.87
2023-04-25T08:43:50.101Z,22.89
2023-04-25T08:44:50.016Z,22.89
2023-04-25T08:45:49.887Z,22.88
2023-04-25T08:46:50.758Z,22.89
2023-04-25T08:47:50.159Z,22.85
2023-04-25T08:48:50.268Z,22.85
2023-04-25T08:49:50.155Z,22.87
2023-04-25T08:50:50.302Z,22.88
2023-04-25T08:51:50.630Z,22.90
2023-04-25T08:52:50.281Z,22.91
2023-04-25T08:53:53.640Z,22.92
2023-04-25T08:54:51.353Z,22.93
2023-04-25T08:55:50.324Z,22.93
2023-04-25T08:56:50.332Z,22.92
2023-04-25T08:57:52.158Z,22.95
2023-04-25T08:58:50.904Z,22.96
2023-04-25T08:59:50.310Z,22.99
2023-04-25T09:00:50.418Z,23.00
2023-04-25T09:01:50.473Z,23.01
2023-04-25T09:02:50.612Z,22.99
2023-04-25T09:03:50.649Z,22.97
2023-04-25T09:04:50.588Z,22.97
2023-04-25T09:05:50.685Z,22.96
2023-04-25T09:06:50.724Z,22.97
2023-04-25T09:07:50.938Z,22.95
2023-04-25T09:08:50.820Z,22.94
2023-04-25T09:09:50.852Z,22.92
2023-04-25T09:10:50.931Z,22.91
2023-04-25T09:11:51.002Z,22.91
2023-04-25T09:12:51.146Z,22.92
2023-04-25T09:13:51.336Z,22.91
2023-04-25T09:14:51.136Z,22.92
2023-04-25T09:15:51.201Z,22.92
2023-04-25T09:16:51.353Z,22.91
2023-04-25T09:17:51.389Z,22.91
2023-04-25T09:18:51.388Z,22.93
2023-04-25T09:19:51.450Z,22.91
2023-04-25T09:21:51.491Z,22.89
2023-04-25T09:22:51.472Z,22.91
2023-04-25T09:23:51.674Z,22.91
2023-04-25T09:24:51.475Z,22.91
2023-04-25T09:25:51.594Z,22.91
2023-04-25T09:26:51.460Z,22.90
2023-04-25T09:27:51.494Z,22.88
2023-04-25T09:28:51.511Z,22.89
2023-04-25T09:29:51.458Z,22.90
2023-04-25T09:30:51.471Z,22.91
2023-04-25T09:31:59.657Z,22.93
2023-04-25T09:32:51.458Z,22.97
2023-04-25T09:33:55.255Z,22.96
2023-04-25T09:34:51.421Z,22.96
2023-04-25T09:35:51.401Z,22.96
2023-04-25T09:36:51.693Z,22.99
2023-04-25T09:37:51.370Z,22.99
2023-04-25T09:38:51.372Z,23.01
2023-04-25T09:39:51.391Z,23.04
2023-04-25T09:40:51.411Z,23.04
2023-04-25T09:41:51.400Z,23.04
2023-04-25T09:42:51.349Z,23.04
2023-04-25T09:43:51.323Z,23.05
2023-04-25T09:44:51.307Z,23.04
2023-04-25T09:45:51.323Z,23.02
2023-04-25T09:46:51.656Z,23.01
2023-04-25T09:47:51.314Z,22.98
2023-04-25T09:48:51.694Z,22.97
2023-04-25T09:49:51.307Z,22.96
2023-04-25T09:50:51.297Z,22.97
2023-04-25T09:51:51.705Z,22.92
2023-04-25T09:52:51.299Z,22.92
2023-04-25T09:53:51.616Z,22.92
2023-04-25T09:54:51.422Z,22.92
2023-04-25T09:55:51.614Z,22.92
2023-04-25T09:56:51.632Z,22.92
2023-04-25T09:57:51.558Z,22.90
2023-04-25T09:58:51.655Z,22.88
2023-04-25T09:59:51.697Z,22.87
2023-04-25T10:00:51.794Z,22.83
2023-04-25T10:01:51.955Z,22.81
2023-04-25T10:02:51.904Z,22.78
2023-04-25T10:03:52.063Z,22.77
2023-04-25T10:04:53.747Z,22.78
2023-04-25T10:05:52.073Z,22.78
2023-04-25T10:06:52.149Z,22.78
2023-04-25T10:07:52.080Z,22.79
2023-04-25T10:08:52.163Z,22.80
2023-04-25T10:09:52.218Z,22.81
2023-04-25T10:10:52.309Z,22.83
2023-04-25T10:11:52.360Z,22.84
2023-04-25T10:12:52.363Z,22.85
2023-04-25T10:13:52.699Z,22.87
2023-04-25T10:14:52.479Z,22.89
2023-04-25T10:15:52.542Z,22.89
2023-04-25T10:16:52.632Z,22.90
2023-04-25T10:17:54.700Z,22.91
2023-04-25T10:18:52.723Z,22.91
2023-04-25T10:19:52.773Z,22.91
2023-04-25T10:20:54.417Z,22.90
2023-04-25T10:21:53.163Z,22.92
2023-04-25T10:22:52.918Z,22.92
2023-04-25T10:23:53.677Z,22.93
2023-04-25T10:24:53.031Z,22.90
2023-04-25T10:25:53.089Z,22.88
2023-04-25T10:26:53.157Z,22.91
2023-04-25T10:27:53.192Z,22.96
2023-04-25T10:28:53.249Z,23.00
2023-04-25T10:29:53.273Z,23.05
2023-04-25T10:30:53.406Z,23.09
2023-04-25T10:31:53.476Z,23.12
2023-04-25T10:32:53.472Z,23.14
2023-04-25T10:33:53.647Z,23.14
2023-04-25T10:34:53.458Z,23.13
2023-04-25T10:35:53.537Z,23.12
2023-04-25T10:36:53.568Z,23.12
2023-04-25T10:37:53.572Z,23.13
2023-04-25T10:38:53.682Z,23.12
2023-04-25T10:39:54.165Z,23.12
2023-04-25T10:40:53.732Z,23.12
2023-04-25T10:41:53.753Z,23.11
2023-04-25T10:42:53.763Z,23.09
2023-04-25T10:43:53.955Z,23.07
2023-04-25T10:44:53.977Z,23.06
2023-04-25T10:45:53.929Z,23.05
2023-04-25T10:46:53.965Z,23.04
2023-04-25T10:47:54.055Z,23.03
2023-04-25T10:48:54.047Z,23.03
2023-04-25T10:49:54.156Z,23.02
2023-04-25T10:50:54.122Z,23.02
2023-04-25T10:51:55.633Z,23.02
2023-04-25T10:52:54.232Z,23.01
2023-04-25T10:53:54.323Z,23.00
2023-04-25T10:54:54.296Z,23.00
2023-04-25T10:55:54.317Z,22.99
2023-04-25T10:56:54.424Z,23.00
2023-04-25T10:57:54.476Z,23.01
2023-04-25T10:58:54.529Z,23.02
2023-04-25T10:59:54.535Z,23.03
2023-04-25T11:00:57.582Z,23.03
2023-04-25T11:01:54.632Z,23.02
2023-04-25T11:02:54.719Z,23.03
2023-04-25T11:03:54.670Z,23.03
2023-04-25T11:04:54.792Z,23.02
2023-04-25T11:05:58.308Z,23.03
2023-04-25T11:06:58.243Z,23.04
2023-04-25T11:08:06.439Z,23.07
2023-04-25T11:08:55.561Z,23.09
2023-04-25T11:09:54.684Z,23.11
2023-04-25T11:10:54.540Z,23.11
2023-04-25T11:11:54.713Z,23.11
2023-04-25T11:12:54.536Z,23.09
2023-04-25T11:13:54.539Z,23.09
2023-04-25T11:14:54.660Z,23.09
2023-04-25T11:16:03.261Z,23.07
2023-04-25T11:16:56.555Z,23.05
2023-04-25T11:17:54.569Z,23.09
2023-04-25T11:18:54.512Z,23.15
2023-04-25T11:19:54.467Z,23.20
2023-04-25T11:20:54.542Z,23.23
2023-04-25T11:21:54.740Z,23.27
2023-04-25T11:22:54.466Z,23.31
2023-04-25T11:23:54.632Z,23.33
2023-04-25T11:24:54.493Z,23.35
2023-04-25T11:25:54.460Z,23.36
2023-04-25T11:26:54.447Z,23.37
2023-04-25T11:27:54.703Z,23.35
2023-04-25T11:28:54.444Z,23.35
2023-04-25T11:29:54.441Z,23.32
2023-04-25T11:30:54.406Z,23.30
2023-04-25T11:31:54.487Z,23.28
2023-04-25T11:32:54.707Z,23.25
2023-04-25T11:33:54.389Z,23.24
2023-04-25T11:34:54.377Z,23.23
2023-04-25T11:35:54.375Z,23.24
2023-04-25T11:36:54.518Z,23.25
2023-04-25T11:37:54.387Z,23.23
2023-04-25T11:38:54.343Z,23.22
2023-04-25T11:39:54.373Z,23.23
2023-04-25T11:40:54.384Z,23.22
2023-04-25T11:41:54.357Z,23.21
2023-04-25T11:42:55.362Z,23.22
2023-04-25T11:43:54.437Z,23.19
2023-04-25T11:44:54.364Z,23.18
2023-04-25T11:45:54.378Z,23.17
2023-04-25T11:46:54.297Z,23.15
2023-04-25T11:47:54.377Z,23.13
2023-04-25T11:48:54.411Z,23.08
2023-04-25T11:49:54.274Z,23.07
2023-04-25T11:50:54.271Z,23.06
2023-04-25T11:51:54.346Z,23.05
2023-04-25T11:52:54.302Z,23.03
2023-04-25T11:53:54.318Z,23.05
2023-04-25T11:54:54.255Z,23.05
2023-04-25T11:55:54.460Z,23.06
2023-04-25T11:56:54.233Z,23.05
2023-04-25T11:57:54.288Z,23.08
2023-04-25T11:58:54.263Z,23.08
2023-04-25T11:59:54.230Z,23.09
2023-04-25T12:00:54.188Z,23.12
2023-04-25T12:01:54.237Z,23.14
2023-04-25T12:02:54.394Z,23.14
2023-04-25T12:03:54.423Z,23.16
2023-04-25T12:04:54.330Z,23.16
2023-04-25T12:05:54.428Z,23.15
2023-04-25T12:06:54.358Z,23.15
2023-04-25T12:07:54.161Z,23.15
2023-04-25T12:08:54.708Z,23.15
2023-04-25T12:09:54.263Z,23.14
2023-04-25T12:10:54.124Z,23.15
2023-04-25T12:11:54.232Z,23.14
2023-04-25T12:12:54.723Z,23.12
2023-04-25T12:13:54.235Z,23.12
2023-04-25T12:14:54.270Z,23.13
2023-04-25T12:15:54.316Z,23.11
2023-04-25T12:16:54.355Z,23.12
2023-04-25T12:17:54.783Z,23.16
2023-04-25T12:18:54.415Z,23.16
2023-04-25T12:19:54.494Z,23.22
2023-04-25T12:20:54.528Z,23.27
2023-04-25T12:21:58.611Z,23.33
2023-04-25T12:22:54.714Z,23.34
2023-04-25T12:23:54.762Z,23.36
2023-04-25T12:24:54.531Z,23.36
2023-04-25T12:25:54.502Z,23.33
2023-04-25T12:26:54.484Z,23.31
2023-04-25T12:27:54.499Z,23.26
2023-04-25T12:28:54.528Z,23.23
2023-04-25T12:29:54.437Z,23.21
2023-04-25T12:30:54.500Z,23.20
2023-04-25T12:31:54.453Z,23.19
2023-04-25T12:32:54.476Z,23.19
2023-04-25T12:33:54.406Z,23.19
2023-04-25T12:34:54.408Z,23.19
2023-04-25T12:35:54.400Z,23.18
2023-04-25T12:36:54.399Z,23.18
2023-04-25T12:37:54.485Z,23.18
2023-04-25T12:38:54.424Z,23.18
2023-04-25T12:39:54.360Z,23.17
2023-04-25T12:40:54.387Z,23.17
2023-04-25T12:41:54.375Z,23.17
2023-04-25T12:42:54.337Z,23.16
2023-04-25T12:43:54.346Z,23.15
2023-04-25T12:44:54.433Z,23.15
2023-04-25T12:45:54.398Z,23.16
2023-04-25T12:46:54.615Z,23.15
2023-04-25T12:47:54.501Z,23.15
2023-04-25T12:48:55.881Z,23.15
2023-04-25T12:49:54.479Z,23.16
2023-04-25T12:50:54.478Z,23.16
2023-04-25T12:51:54.513Z,23.16
2023-04-25T12:52:54.517Z,23.18
2023-04-25T12:53:54.486Z,23.16